GCXOGCLA

Guest
Details From GCXO - Tenerife Norte - Los Rodeos
To GCLA - La Palma
Flight Number -
Tags Generated
Created
Modified
Stats Distance 74 nm / 137 km
Max Altitude 0 ft / 0 m
Waypoints 2
Social Downloads 4
Likes 0
Share VATSIM

Download

Looking for another format? Having issues loading an existing format? Contact us
Advertisement - Login to hide

Notes

Generated

Route

GCXO GCLA

ID Type Via Altitude Latitude Longitude Leg Dist Tot Dist Heading (true) Name
O GCXO APT - 0 ft / 0 m 28.48804˚ -16.35776˚ - 0 nm - -
O GCLA APT - 0 ft / 0 m 28.61659˚ -17.75542˚ 74 nm 74 nm 276° / 276° -

Altitude Profile

Advertisement - Login to hide

GCXO

Details ICAO GCXO (TFN)
Name Tenerife Norte - Los Rodeos
Region Canary Islands
Timezone Atlantic/Canary (UTC+1.0)
Stats Elevation 2,076 ft / 633 m (AMSL)
Location 28.482656° -16.341541°
Runways 1
Magnetic Variation 4.950° W

METAR

GCXO 261630Z 32014KT 280V350 9999 SCT011 BKN015 17/13 Q1019 NOSIG

Decode

TAF

TAF GCXO 261400Z 2615/2715 32016KT 9999 BKN020 TX18/2714Z TN12/2705Z BECMG 2619/2621 BKN012 BECMG 2708/2710 BKN020

Decode

Departure Runways

ID Width Length Bearing (true) Bearing (mag) Surface Threshold Offset Overrun Length
12 148 ft / 45 m 11,165 ft / 3,403 m 110.67° 115.62° Asphalt 0 ft / 0 m 197 ft / 60 m
30 148 ft / 45 m 11,165 ft / 3,403 m 290.69° 295.64° Asphalt 0 ft / 0 m 197 ft / 60 m

GCLA

Details ICAO GCLA (SPC)
Name La Palma
Region Canary Islands
Timezone Atlantic/Canary (UTC+1.0)
Stats Elevation 107 ft / 33 m (AMSL)
Location 28.626480° -17.755613°
Runways 1
Magnetic Variation 5.469° W

METAR

GCLA 261630Z 04010KT 350V080 9999 BKN040 20/12 Q1019

Decode

TAF

TAF GCLA 261400Z 2615/2715 02011KT 9999 FEW040 BKN050 TX23/2714Z TN17/2705Z PROB30 TEMPO 2615/2618 02017G27KT PROB40 2706/2709 32007KT

Decode

Destination Runways

ID Width Length Bearing (true) Bearing (mag) Surface Threshold Offset Overrun Length
01 148 ft / 45 m 7,240 ft / 2,207 m 359.02° 4.49° Asphalt 0 ft / 0 m 279 ft / 85 m
19 148 ft / 45 m 7,240 ft / 2,207 m 179.02° 184.49° Asphalt 0 ft / 0 m 236 ft / 72 m

Popular Alternatives